sensor_id;sensor_type;location;lat;lon;timestamp;P1;durP1;ratioP1;P2;durP2;ratioP2
45296;SDS011;31040;51.622;10.420;2022-11-20T00:01:30;6.65;;;4.35;;
45296;SDS011;31040;51.622;10.420;2022-11-20T00:03:58;6.82;;;4.00;;
45296;SDS011;31040;51.622;10.420;2022-11-20T00:06:26;7.10;;;3.85;;
45296;SDS011;31040;51.622;10.420;2022-11-20T00:08:54;7.20;;;4.22;;
45296;SDS011;31040;51.622;10.420;2022-11-20T00:11:23;6.18;;;3.85;;
45296;SDS011;31040;51.622;10.420;2022-11-20T00:13:52;7.03;;;3.75;;
45296;SDS011;31040;51.622;10.420;2022-11-20T00:16:21;6.78;;;4.28;;
45296;SDS011;31040;51.622;10.420;2022-11-20T00:18:49;7.75;;;5.00;;
45296;SDS011;31040;51.622;10.420;2022-11-20T00:21:22;7.93;;;4.55;;
45296;SDS011;31040;51.622;10.420;2022-11-20T00:23:50;7.05;;;4.45;;
45296;SDS011;31040;51.622;10.420;2022-11-20T00:26:20;5.85;;;3.78;;
45296;SDS011;31040;51.622;10.420;2022-11-20T00:28:49;6.85;;;4.10;;
45296;SDS011;31040;51.622;10.420;2022-11-20T00:31:17;9.07;;;3.88;;
45296;SDS011;31040;51.622;10.420;2022-11-20T00:33:45;6.10;;;3.35;;
45296;SDS011;31040;51.622;10.420;2022-11-20T00:36:16;6.68;;;3.60;;
45296;SDS011;31040;51.622;10.420;2022-11-20T00:38:44;6.47;;;3.72;;
45296;SDS011;31040;51.622;10.420;2022-11-20T00:41:15;4.93;;;3.33;;
45296;SDS011;31040;51.622;10.420;2022-11-20T00:43:42;4.35;;;2.97;;
45296;SDS011;31040;51.622;10.420;2022-11-20T00:46:12;5.03;;;2.83;;
45296;SDS011;31040;51.622;10.420;2022-11-20T00:48:40;5.72;;;3.28;;
45296;SDS011;31040;51.622;10.420;2022-11-20T00:51:07;4.78;;;3.00;;
45296;SDS011;31040;51.622;10.420;2022-11-20T00:53:35;4.13;;;2.72;;
45296;SDS011;31040;51.622;10.420;2022-11-20T00:56:03;3.65;;;2.90;;
45296;SDS011;31040;51.622;10.420;2022-11-20T00:58:32;3.88;;;2.90;;
45296;SDS011;31040;51.622;10.420;2022-11-20T01:01:04;4.13;;;2.47;;
45296;SDS011;31040;51.622;10.420;2022-11-20T01:03:33;6.50;;;3.33;;
45296;SDS011;31040;51.622;10.420;2022-11-20T01:06:05;4.00;;;2.92;;
45296;SDS011;31040;51.622;10.420;2022-11-20T01:08:35;4.95;;;3.00;;
45296;SDS011;31040;51.622;10.420;2022-11-20T01:11:05;4.60;;;2.80;;
45296;SDS011;31040;51.622;10.420;2022-11-20T01:13:33;4.72;;;3.53;;
45296;SDS011;31040;51.622;10.420;2022-11-20T01:18:31;4.40;;;3.22;;
45296;SDS011;31040;51.622;10.420;2022-11-20T01:21:03;3.83;;;2.78;;
45296;SDS011;31040;51.622;10.420;2022-11-20T01:23:31;4.32;;;3.30;;
45296;SDS011;31040;51.622;10.420;2022-11-20T01:25:59;4.47;;;3.40;;
45296;SDS011;31040;51.622;10.420;2022-11-20T01:28:28;5.18;;;3.13;;
45296;SDS011;31040;51.622;10.420;2022-11-20T01:30:55;4.55;;;2.63;;
45296;SDS011;31040;51.622;10.420;2022-11-20T01:33:23;5.78;;;3.30;;
45296;SDS011;31040;51.622;10.420;2022-11-20T01:35:51;4.38;;;3.15;;
45296;SDS011;31040;51.622;10.420;2022-11-20T01:38:18;5.10;;;3.33;;
45296;SDS011;31040;51.622;10.420;2022-11-20T01:40:55;4.63;;;3.13;;
45296;SDS011;31040;51.622;10.420;2022-11-20T01:43:23;4.35;;;2.90;;
45296;SDS011;31040;51.622;10.420;2022-11-20T01:48:26;4.50;;;3.47;;
45296;SDS011;31040;51.622;10.420;2022-11-20T01:50:54;5.07;;;3.28;;
45296;SDS011;31040;51.622;10.420;2022-11-20T01:53:24;3.22;;;2.65;;
45296;SDS011;31040;51.622;10.420;2022-11-20T01:55:52;5.30;;;3.40;;
45296;SDS011;31040;51.622;10.420;2022-11-20T01:58:22;5.60;;;3.25;;
45296;SDS011;31040;51.622;10.420;2022-11-20T02:00:50;5.25;;;3.55;;
45296;SDS011;31040;51.622;10.420;2022-11-20T02:03:18;5.45;;;3.28;;
45296;SDS011;31040;51.622;10.420;2022-11-20T02:05:47;5.07;;;3.08;;
45296;SDS011;31040;51.622;10.420;2022-11-20T02:08:17;5.45;;;2.65;;
45296;SDS011;31040;51.622;10.420;2022-11-20T02:10:45;3.25;;;2.28;;
45296;SDS011;31040;51.622;10.420;2022-11-20T02:13:12;4.72;;;2.83;;
45296;SDS011;31040;51.622;10.420;2022-11-20T02:15:59;5.50;;;2.80;;
45296;SDS011;31040;51.622;10.420;2022-11-20T02:18:26;5.68;;;3.42;;
45296;SDS011;31040;51.622;10.420;2022-11-20T02:21:06;4.82;;;2.95;;
45296;SDS011;31040;51.622;10.420;2022-11-20T02:23:37;5.93;;;3.70;;
45296;SDS011;31040;51.622;10.420;2022-11-20T02:26:06;6.75;;;3.38;;
45296;SDS011;31040;51.622;10.420;2022-11-20T02:28:38;5.20;;;2.83;;
45296;SDS011;31040;51.622;10.420;2022-11-20T02:31:06;2.60;;;2.30;;
45296;SDS011;31040;51.622;10.420;2022-11-20T02:33:34;3.22;;;2.58;;
45296;SDS011;31040;51.622;10.420;2022-11-20T02:36:01;4.25;;;2.97;;
45296;SDS011;31040;51.622;10.420;2022-11-20T02:38:28;4.07;;;2.97;;
45296;SDS011;31040;51.622;10.420;2022-11-20T02:40:56;5.95;;;3.13;;
45296;SDS011;31040;51.622;10.420;2022-11-20T02:43:23;4.43;;;2.72;;
45296;SDS011;31040;51.622;10.420;2022-11-20T02:45:51;5.80;;;2.67;;
45296;SDS011;31040;51.622;10.420;2022-11-20T02:48:18;4.78;;;2.60;;
45296;SDS011;31040;51.622;10.420;2022-11-20T02:50:45;4.63;;;2.80;;
45296;SDS011;31040;51.622;10.420;2022-11-20T02:53:13;5.43;;;2.90;;
45296;SDS011;31040;51.622;10.420;2022-11-20T02:55:40;5.72;;;3.40;;
45296;SDS011;31040;51.622;10.420;2022-11-20T02:58:08;5.47;;;2.88;;
45296;SDS011;31040;51.622;10.420;2022-11-20T03:00:35;4.82;;;2.75;;
45296;SDS011;31040;51.622;10.420;2022-11-20T03:03:03;3.97;;;2.55;;
45296;SDS011;31040;51.622;10.420;2022-11-20T03:05:31;3.78;;;3.10;;
45296;SDS011;31040;51.622;10.420;2022-11-20T03:07:59;4.57;;;2.58;;
45296;SDS011;31040;51.622;10.420;2022-11-20T03:10:26;4.10;;;2.90;;
45296;SDS011;31040;51.622;10.420;2022-11-20T03:12:54;3.92;;;2.90;;
45296;SDS011;31040;51.622;10.420;2022-11-20T03:15:22;4.78;;;2.67;;
45296;SDS011;31040;51.622;10.420;2022-11-20T03:17:52;6.70;;;3.03;;
45296;SDS011;31040;51.622;10.420;2022-11-20T03:20:21;4.25;;;2.03;;
45296;SDS011;31040;51.622;10.420;2022-11-20T03:22:48;3.67;;;2.55;;
45296;SDS011;31040;51.622;10.420;2022-11-20T03:25:16;4.32;;;2.75;;
45296;SDS011;31040;51.622;10.420;2022-11-20T03:27:43;5.28;;;2.72;;
45296;SDS011;31040;51.622;10.420;2022-11-20T03:30:10;3.55;;;2.47;;
45296;SDS011;31040;51.622;10.420;2022-11-20T03:32:38;4.78;;;2.35;;
45296;SDS011;31040;51.622;10.420;2022-11-20T03:35:06;4.07;;;2.85;;
45296;SDS011;31040;51.622;10.420;2022-11-20T03:37:33;3.63;;;2.35;;
45296;SDS011;31040;51.622;10.420;2022-11-20T03:40:01;3.95;;;2.67;;
45296;SDS011;31040;51.622;10.420;2022-11-20T03:42:28;2.28;;;1.90;;
45296;SDS011;31040;51.622;10.420;2022-11-20T03:45:15;2.30;;;2.03;;
45296;SDS011;31040;51.622;10.420;2022-11-20T03:47:43;3.00;;;2.55;;
45296;SDS011;31040;51.622;10.420;2022-11-20T03:50:11;4.45;;;2.10;;
45296;SDS011;31040;51.622;10.420;2022-11-20T03:52:40;4.60;;;2.75;;
45296;SDS011;31040;51.622;10.420;2022-11-20T03:55:08;4.13;;;2.47;;
45296;SDS011;31040;51.622;10.420;2022-11-20T03:57:35;4.68;;;2.58;;
45296;SDS011;31040;51.622;10.420;2022-11-20T04:00:03;3.40;;;2.38;;
45296;SDS011;31040;51.622;10.420;2022-11-20T04:02:31;3.78;;;2.30;;
45296;SDS011;31040;51.622;10.420;2022-11-20T04:04:58;3.72;;;2.40;;
45296;SDS011;31040;51.622;10.420;2022-11-20T04:07:26;4.05;;;2.30;;
45296;SDS011;31040;51.622;10.420;2022-11-20T04:09:53;2.92;;;2.17;;
45296;SDS011;31040;51.622;10.420;2022-11-20T04:12:22;4.05;;;2.35;;
45296;SDS011;31040;51.622;10.420;2022-11-20T04:14:50;3.92;;;1.77;;
45296;SDS011;31040;51.622;10.420;2022-11-20T04:17:17;3.95;;;2.33;;
45296;SDS011;31040;51.622;10.420;2022-11-20T04:19:45;3.42;;;2.50;;
45296;SDS011;31040;51.622;10.420;2022-11-20T04:22:12;4.88;;;2.88;;
45296;SDS011;31040;51.622;10.420;2022-11-20T04:24:40;3.38;;;2.42;;
45296;SDS011;31040;51.622;10.420;2022-11-20T04:27:08;4.75;;;2.60;;
45296;SDS011;31040;51.622;10.420;2022-11-20T04:29:35;2.85;;;2.03;;
45296;SDS011;31040;51.622;10.420;2022-11-20T04:32:02;4.90;;;2.28;;
45296;SDS011;31040;51.622;10.420;2022-11-20T04:34:30;2.88;;;2.20;;
45296;SDS011;31040;51.622;10.420;2022-11-20T04:36:57;3.45;;;2.22;;
45296;SDS011;31040;51.622;10.420;2022-11-20T04:39:24;2.42;;;1.88;;
45296;SDS011;31040;51.622;10.420;2022-11-20T04:41:52;2.85;;;1.77;;
45296;SDS011;31040;51.622;10.420;2022-11-20T04:44:39;3.08;;;1.75;;
45296;SDS011;31040;51.622;10.420;2022-11-20T04:47:06;3.65;;;2.35;;
45296;SDS011;31040;51.622;10.420;2022-11-20T04:49:34;3.63;;;2.08;;
45296;SDS011;31040;51.622;10.420;2022-11-20T04:52:01;3.00;;;2.13;;
45296;SDS011;31040;51.622;10.420;2022-11-20T04:54:29;3.42;;;2.08;;
45296;SDS011;31040;51.622;10.420;2022-11-20T04:56:56;4.28;;;2.13;;
45296;SDS011;31040;51.622;10.420;2022-11-20T04:59:23;3.50;;;2.30;;
45296;SDS011;31040;51.622;10.420;2022-11-20T05:01:51;2.55;;;2.15;;
45296;SDS011;31040;51.622;10.420;2022-11-20T05:04:19;3.05;;;2.13;;
45296;SDS011;31040;51.622;10.420;2022-11-20T05:06:46;2.70;;;2.08;;
45296;SDS011;31040;51.622;10.420;2022-11-20T05:09:14;4.60;;;2.53;;
45296;SDS011;31040;51.622;10.420;2022-11-20T05:11:42;5.88;;;1.98;;
45296;SDS011;31040;51.622;10.420;2022-11-20T05:14:13;2.90;;;1.70;;
45296;SDS011;31040;51.622;10.420;2022-11-20T05:16:40;2.45;;;1.83;;
45296;SDS011;31040;51.622;10.420;2022-11-20T05:19:08;3.15;;;1.55;;
45296;SDS011;31040;51.622;10.420;2022-11-20T05:21:35;3.35;;;1.80;;
45296;SDS011;31040;51.622;10.420;2022-11-20T05:24:03;3.47;;;1.73;;
45296;SDS011;31040;51.622;10.420;2022-11-20T05:26:31;2.38;;;1.85;;
45296;SDS011;31040;51.622;10.420;2022-11-20T05:28:58;4.50;;;2.28;;
45296;SDS011;31040;51.622;10.420;2022-11-20T05:31:26;2.42;;;2.10;;
45296;SDS011;31040;51.622;10.420;2022-11-20T05:33:54;3.45;;;1.92;;
45296;SDS011;31040;51.622;10.420;2022-11-20T05:36:22;2.95;;;2.10;;
45296;SDS011;31040;51.622;10.420;2022-11-20T05:38:49;3.58;;;2.17;;
45296;SDS011;31040;51.622;10.420;2022-11-20T05:41:22;2.95;;;1.73;;
45296;SDS011;31040;51.622;10.420;2022-11-20T05:43:49;3.45;;;1.70;;
45296;SDS011;31040;51.622;10.420;2022-11-20T05:46:20;2.47;;;1.75;;
45296;SDS011;31040;51.622;10.420;2022-11-20T05:48:54;3.08;;;1.80;;
45296;SDS011;31040;51.622;10.420;2022-11-20T05:51:22;4.97;;;1.70;;
45296;SDS011;31040;51.622;10.420;2022-11-20T05:53:49;3.03;;;1.67;;
45296;SDS011;31040;51.622;10.420;2022-11-20T05:56:17;2.17;;;1.83;;
45296;SDS011;31040;51.622;10.420;2022-11-20T05:58:45;3.92;;;1.75;;
45296;SDS011;31040;51.622;10.420;2022-11-20T06:01:17;2.75;;;1.75;;
45296;SDS011;31040;51.622;10.420;2022-11-20T06:03:45;3.60;;;1.90;;
45296;SDS011;31040;51.622;10.420;2022-11-20T06:06:14;3.38;;;1.77;;
45296;SDS011;31040;51.622;10.420;2022-11-20T06:08:42;2.88;;;1.90;;
45296;SDS011;31040;51.622;10.420;2022-11-20T06:11:10;5.18;;;2.58;;
45296;SDS011;31040;51.622;10.420;2022-11-20T06:13:39;3.92;;;2.05;;
45296;SDS011;31040;51.622;10.420;2022-11-20T06:16:08;3.40;;;1.83;;
45296;SDS011;31040;51.622;10.420;2022-11-20T06:18:36;3.35;;;1.88;;
45296;SDS011;31040;51.622;10.420;2022-11-20T06:23:32;3.95;;;2.63;;
45296;SDS011;31040;51.622;10.420;2022-11-20T06:26:03;5.78;;;2.72;;
45296;SDS011;31040;51.622;10.420;2022-11-20T06:28:31;4.32;;;2.33;;
45296;SDS011;31040;51.622;10.420;2022-11-20T06:30:59;4.53;;;2.08;;
45296;SDS011;31040;51.622;10.420;2022-11-20T06:33:26;3.78;;;2.28;;
45296;SDS011;31040;51.622;10.420;2022-11-20T06:35:57;3.58;;;2.25;;
45296;SDS011;31040;51.622;10.420;2022-11-20T06:38:31;5.28;;;2.53;;
45296;SDS011;31040;51.622;10.420;2022-11-20T06:40:58;4.30;;;2.10;;
45296;SDS011;31040;51.622;10.420;2022-11-20T06:43:26;4.40;;;2.45;;
45296;SDS011;31040;51.622;10.420;2022-11-20T06:45:53;7.30;;;3.30;;
45296;SDS011;31040;51.622;10.420;2022-11-20T06:48:21;6.65;;;3.30;;
45296;SDS011;31040;51.622;10.420;2022-11-20T06:50:48;4.95;;;2.70;;
45296;SDS011;31040;51.622;10.420;2022-11-20T06:53:16;2.92;;;2.53;;
45296;SDS011;31040;51.622;10.420;2022-11-20T06:55:47;9.45;;;3.08;;
45296;SDS011;31040;51.622;10.420;2022-11-20T06:58:15;6.55;;;2.70;;
45296;SDS011;31040;51.622;10.420;2022-11-20T07:00:43;4.03;;;3.10;;
45296;SDS011;31040;51.622;10.420;2022-11-20T07:03:11;4.72;;;2.30;;
45296;SDS011;31040;51.622;10.420;2022-11-20T07:05:39;2.95;;;1.83;;
45296;SDS011;31040;51.622;10.420;2022-11-20T07:08:07;3.80;;;2.05;;
45296;SDS011;31040;51.622;10.420;2022-11-20T07:10:34;5.07;;;2.50;;
45296;SDS011;31040;51.622;10.420;2022-11-20T07:13:02;33.15;;;6.20;;
45296;SDS011;31040;51.622;10.420;2022-11-20T07:15:30;7.30;;;4.07;;
45296;SDS011;31040;51.622;10.420;2022-11-20T07:17:58;13.90;;;2.85;;
45296;SDS011;31040;51.622;10.420;2022-11-20T07:20:26;15.38;;;4.15;;
45296;SDS011;31040;51.622;10.420;2022-11-20T07:22:54;10.02;;;3.58;;
45296;SDS011;31040;51.622;10.420;2022-11-20T07:25:26;9.18;;;4.88;;
45296;SDS011;31040;51.622;10.420;2022-11-20T07:27:57;8.88;;;5.28;;
45296;SDS011;31040;51.622;10.420;2022-11-20T07:30:25;11.25;;;5.38;;
45296;SDS011;31040;51.622;10.420;2022-11-20T07:32:53;6.82;;;4.35;;
45296;SDS011;31040;51.622;10.420;2022-11-20T07:35:21;6.00;;;3.75;;
45296;SDS011;31040;51.622;10.420;2022-11-20T07:37:49;9.27;;;5.03;;
45296;SDS011;31040;51.622;10.420;2022-11-20T07:40:16;12.73;;;5.32;;
45296;SDS011;31040;51.622;10.420;2022-11-20T07:42:50;8.38;;;4.85;;
45296;SDS011;31040;51.622;10.420;2022-11-20T07:45:18;5.43;;;3.90;;
45296;SDS011;31040;51.622;10.420;2022-11-20T07:47:46;8.70;;;4.47;;
45296;SDS011;31040;51.622;10.420;2022-11-20T07:50:14;8.45;;;5.07;;
45296;SDS011;31040;51.622;10.420;2022-11-20T07:52:42;7.05;;;4.88;;
45296;SDS011;31040;51.622;10.420;2022-11-20T07:55:09;66.95;;;22.83;;
45296;SDS011;31040;51.622;10.420;2022-11-20T07:57:37;78.35;;;24.98;;
45296;SDS011;31040;51.622;10.420;2022-11-20T08:00:05;82.28;;;26.30;;
45296;SDS011;31040;51.622;10.420;2022-11-20T08:02:37;58.58;;;23.58;;
45296;SDS011;31040;51.622;10.420;2022-11-20T08:05:05;36.50;;;13.70;;
45296;SDS011;31040;51.622;10.420;2022-11-20T08:07:39;13.20;;;6.65;;
45296;SDS011;31040;51.622;10.420;2022-11-20T08:10:08;8.63;;;7.43;;
45296;SDS011;31040;51.622;10.420;2022-11-20T08:12:36;6.90;;;5.03;;
45296;SDS011;31040;51.622;10.420;2022-11-20T08:15:22;6.80;;;4.25;;
45296;SDS011;31040;51.622;10.420;2022-11-20T08:17:49;6.72;;;3.88;;
45296;SDS011;31040;51.622;10.420;2022-11-20T08:20:39;5.00;;;3.28;;
45296;SDS011;31040;51.622;10.420;2022-11-20T08:23:11;5.15;;;3.60;;
45296;SDS011;31040;51.622;10.420;2022-11-20T08:25:38;4.82;;;3.67;;
45296;SDS011;31040;51.622;10.420;2022-11-20T08:28:07;8.18;;;4.10;;
45296;SDS011;31040;51.622;10.420;2022-11-20T08:30:46;7.97;;;4.88;;
45296;SDS011;31040;51.622;10.420;2022-11-20T08:33:13;5.50;;;4.72;;
45296;SDS011;31040;51.622;10.420;2022-11-20T08:35:40;9.73;;;5.15;;
45296;SDS011;31040;51.622;10.420;2022-11-20T08:38:09;7.45;;;4.85;;
45296;SDS011;31040;51.622;10.420;2022-11-20T08:40:36;7.88;;;5.00;;
45296;SDS011;31040;51.622;10.420;2022-11-20T08:43:04;8.30;;;5.40;;
45296;SDS011;31040;51.622;10.420;2022-11-20T08:45:31;13.65;;;6.10;;
45296;SDS011;31040;51.622;10.420;2022-11-20T08:48:01;14.55;;;7.80;;
45296;SDS011;31040;51.622;10.420;2022-11-20T08:50:29;17.40;;;9.40;;
45296;SDS011;31040;51.622;10.420;2022-11-20T08:53:03;21.55;;;13.18;;
45296;SDS011;31040;51.622;10.420;2022-11-20T08:55:30;21.23;;;11.55;;
45296;SDS011;31040;51.622;10.420;2022-11-20T08:57:58;14.52;;;8.95;;
45296;SDS011;31040;51.622;10.420;2022-11-20T09:00:25;16.55;;;9.35;;
45296;SDS011;31040;51.622;10.420;2022-11-20T09:02:53;19.38;;;10.60;;
45296;SDS011;31040;51.622;10.420;2022-11-20T09:05:20;15.82;;;9.05;;
45296;SDS011;31040;51.622;10.420;2022-11-20T09:07:48;14.82;;;9.40;;
45296;SDS011;31040;51.622;10.420;2022-11-20T09:10:15;18.55;;;9.50;;
45296;SDS011;31040;51.622;10.420;2022-11-20T09:12:51;16.05;;;8.98;;
45296;SDS011;31040;51.622;10.420;2022-11-20T09:15:18;16.73;;;10.45;;
45296;SDS011;31040;51.622;10.420;2022-11-20T09:17:52;20.65;;;9.15;;
45296;SDS011;31040;51.622;10.420;2022-11-20T09:20:20;17.50;;;10.20;;
45296;SDS011;31040;51.622;10.420;2022-11-20T09:22:47;20.80;;;11.25;;
45296;SDS011;31040;51.622;10.420;2022-11-20T09:25:15;17.77;;;9.98;;
45296;SDS011;31040;51.622;10.420;2022-11-20T09:27:42;17.50;;;10.45;;
45296;SDS011;31040;51.622;10.420;2022-11-20T09:30:32;16.98;;;9.52;;
45296;SDS011;31040;51.622;10.420;2022-11-20T09:32:59;16.33;;;9.70;;
45296;SDS011;31040;51.622;10.420;2022-11-20T09:35:27;16.48;;;9.35;;
45296;SDS011;31040;51.622;10.420;2022-11-20T09:38:07;15.88;;;8.63;;
45296;SDS011;31040;51.622;10.420;2022-11-20T09:40:35;17.15;;;8.98;;
45296;SDS011;31040;51.622;10.420;2022-11-20T09:43:18;15.32;;;7.95;;
45296;SDS011;31040;51.622;10.420;2022-11-20T09:51:39;18.75;;;9.30;;
45296;SDS011;31040;51.622;10.420;2022-11-20T09:54:15;25.58;;;10.05;;
45296;SDS011;31040;51.622;10.420;2022-11-20T09:56:47;18.02;;;9.23;;
45296;SDS011;31040;51.622;10.420;2022-11-20T10:09:59;23.05;;;9.95;;
45296;SDS011;31040;51.622;10.420;2022-11-20T10:12:50;17.35;;;8.77;;
45296;SDS011;31040;51.622;10.420;2022-11-20T10:26:12;24.45;;;12.85;;
45296;SDS011;31040;51.622;10.420;2022-11-20T10:28:56;16.52;;;8.23;;
45296;SDS011;31040;51.622;10.420;2022-11-20T10:31:37;18.42;;;8.40;;
45296;SDS011;31040;51.622;10.420;2022-11-20T10:34:16;19.15;;;8.43;;
45296;SDS011;31040;51.622;10.420;2022-11-20T10:39:35;16.92;;;8.45;;
45296;SDS011;31040;51.622;10.420;2022-11-20T10:42:11;18.90;;;9.13;;
45296;SDS011;31040;51.622;10.420;2022-11-20T10:44:42;21.75;;;8.40;;
45296;SDS011;31040;51.622;10.420;2022-11-20T10:47:31;17.45;;;8.75;;
45296;SDS011;31040;51.622;10.420;2022-11-20T10:50:03;21.40;;;11.88;;
45296;SDS011;31040;51.622;10.420;2022-11-20T11:00:47;18.92;;;9.95;;
45296;SDS011;31040;51.622;10.420;2022-11-20T11:03:36;21.45;;;9.60;;
45296;SDS011;31040;51.622;10.420;2022-11-20T11:08:39;19.75;;;9.32;;
45296;SDS011;31040;51.622;10.420;2022-11-20T11:11:18;19.38;;;9.77;;
45296;SDS011;31040;51.622;10.420;2022-11-20T11:13:47;18.08;;;9.52;;
45296;SDS011;31040;51.622;10.420;2022-11-20T11:16:25;20.23;;;11.50;;
45296;SDS011;31040;51.622;10.420;2022-11-20T11:19:03;19.00;;;9.63;;
45296;SDS011;31040;51.622;10.420;2022-11-20T11:21:30;20.08;;;12.10;;
45296;SDS011;31040;51.622;10.420;2022-11-20T11:23:59;21.20;;;10.82;;
45296;SDS011;31040;51.622;10.420;2022-11-20T11:27:11;25.02;;;12.07;;
45296;SDS011;31040;51.622;10.420;2022-11-20T11:29:42;27.23;;;10.63;;
45296;SDS011;31040;51.622;10.420;2022-11-20T11:32:20;19.70;;;10.35;;
45296;SDS011;31040;51.622;10.420;2022-11-20T11:35:04;24.45;;;11.77;;
45296;SDS011;31040;51.622;10.420;2022-11-20T11:37:33;22.33;;;9.82;;
45296;SDS011;31040;51.622;10.420;2022-11-20T11:40:02;19.35;;;10.52;;
45296;SDS011;31040;51.622;10.420;2022-11-20T11:42:56;17.73;;;10.02;;
45296;SDS011;31040;51.622;10.420;2022-11-20T11:45:24;21.60;;;11.32;;
45296;SDS011;31040;51.622;10.420;2022-11-20T11:47:53;18.23;;;10.73;;
45296;SDS011;31040;51.622;10.420;2022-11-20T11:50:22;22.52;;;11.57;;
45296;SDS011;31040;51.622;10.420;2022-11-20T12:00:51;22.35;;;11.60;;
45296;SDS011;31040;51.622;10.420;2022-11-20T12:03:24;23.52;;;10.98;;
45296;SDS011;31040;51.622;10.420;2022-11-20T12:05:56;17.23;;;9.55;;
45296;SDS011;31040;51.622;10.420;2022-11-20T12:08:31;20.10;;;9.43;;
45296;SDS011;31040;51.622;10.420;2022-11-20T12:13:36;19.75;;;10.35;;
45296;SDS011;31040;51.622;10.420;2022-11-20T12:16:04;15.90;;;8.98;;
45296;SDS011;31040;51.622;10.420;2022-11-20T12:18:32;13.82;;;8.57;;
45296;SDS011;31040;51.622;10.420;2022-11-20T12:26:52;14.48;;;7.63;;
45296;SDS011;31040;51.622;10.420;2022-11-20T12:39:45;13.95;;;8.80;;
45296;SDS011;31040;51.622;10.420;2022-11-20T12:42:23;14.00;;;7.72;;
45296;SDS011;31040;51.622;10.420;2022-11-20T12:55:32;14.80;;;7.95;;
45296;SDS011;31040;51.622;10.420;2022-11-20T13:00:31;13.38;;;7.45;;
45296;SDS011;31040;51.622;10.420;2022-11-20T13:08:24;14.32;;;8.43;;
45296;SDS011;31040;51.622;10.420;2022-11-20T13:16:36;13.30;;;8.07;;
45296;SDS011;31040;51.622;10.420;2022-11-20T13:19:05;16.45;;;9.32;;
45296;SDS011;31040;51.622;10.420;2022-11-20T13:24:05;14.27;;;7.93;;
45296;SDS011;31040;51.622;10.420;2022-11-20T13:26:32;17.85;;;9.50;;
45296;SDS011;31040;51.622;10.420;2022-11-20T13:29:18;14.23;;;8.30;;
45296;SDS011;31040;51.622;10.420;2022-11-20T13:31:47;13.13;;;8.05;;
45296;SDS011;31040;51.622;10.420;2022-11-20T13:34:23;16.80;;;9.00;;
45296;SDS011;31040;51.622;10.420;2022-11-20T13:36:53;15.95;;;8.38;;
45296;SDS011;31040;51.622;10.420;2022-11-20T13:39:28;16.38;;;8.23;;
45296;SDS011;31040;51.622;10.420;2022-11-20T13:41:56;15.02;;;8.52;;
45296;SDS011;31040;51.622;10.420;2022-11-20T13:46:52;21.05;;;12.10;;
45296;SDS011;31040;51.622;10.420;2022-11-20T13:52:42;19.15;;;10.98;;
45296;SDS011;31040;51.622;10.420;2022-11-20T13:55:31;19.13;;;10.93;;
45296;SDS011;31040;51.622;10.420;2022-11-20T14:00:43;14.38;;;7.93;;
45296;SDS011;31040;51.622;10.420;2022-11-20T14:03:29;15.65;;;9.30;;
45296;SDS011;31040;51.622;10.420;2022-11-20T14:08:47;14.00;;;7.65;;
45296;SDS011;31040;51.622;10.420;2022-11-20T14:11:17;16.08;;;8.68;;
45296;SDS011;31040;51.622;10.420;2022-11-20T14:13:54;13.43;;;7.60;;
45296;SDS011;31040;51.622;10.420;2022-11-20T14:16:23;13.13;;;8.15;;
45296;SDS011;31040;51.622;10.420;2022-11-20T14:18:51;13.75;;;8.60;;
45296;SDS011;31040;51.622;10.420;2022-11-20T14:21:28;15.25;;;8.40;;
45296;SDS011;31040;51.622;10.420;2022-11-20T14:24:05;13.60;;;7.90;;
45296;SDS011;31040;51.622;10.420;2022-11-20T14:26:33;14.57;;;8.80;;
45296;SDS011;31040;51.622;10.420;2022-11-20T14:29:01;14.70;;;7.88;;
45296;SDS011;31040;51.622;10.420;2022-11-20T14:31:28;12.70;;;7.88;;
45296;SDS011;31040;51.622;10.420;2022-11-20T14:33:56;17.13;;;9.20;;
45296;SDS011;31040;51.622;10.420;2022-11-20T14:36:24;14.73;;;8.45;;
45296;SDS011;31040;51.622;10.420;2022-11-20T14:38:52;14.05;;;8.23;;
45296;SDS011;31040;51.622;10.420;2022-11-20T14:41:21;13.00;;;7.93;;
45296;SDS011;31040;51.622;10.420;2022-11-20T14:46:22;18.00;;;10.73;;
45296;SDS011;31040;51.622;10.420;2022-11-20T14:48:51;18.02;;;9.07;;
45296;SDS011;31040;51.622;10.420;2022-11-20T14:51:32;14.05;;;7.97;;
45296;SDS011;31040;51.622;10.420;2022-11-20T14:57:03;18.13;;;9.00;;
45296;SDS011;31040;51.622;10.420;2022-11-20T14:59:32;15.98;;;8.75;;
45296;SDS011;31040;51.622;10.420;2022-11-20T15:02:04;14.68;;;8.60;;
45296;SDS011;31040;51.622;10.420;2022-11-20T15:04:32;13.85;;;8.63;;
45296;SDS011;31040;51.622;10.420;2022-11-20T15:07:00;13.05;;;8.32;;
45296;SDS011;31040;51.622;10.420;2022-11-20T15:09:28;15.32;;;8.68;;
45296;SDS011;31040;51.622;10.420;2022-11-20T15:11:59;14.75;;;8.45;;
45296;SDS011;31040;51.622;10.420;2022-11-20T15:14:27;13.05;;;8.90;;
45296;SDS011;31040;51.622;10.420;2022-11-20T15:16:55;11.75;;;6.90;;
45296;SDS011;31040;51.622;10.420;2022-11-20T15:19:23;13.25;;;7.53;;
45296;SDS011;31040;51.622;10.420;2022-11-20T15:21:51;11.00;;;6.75;;
45296;SDS011;31040;51.622;10.420;2022-11-20T15:24:18;10.20;;;6.22;;
45296;SDS011;31040;51.622;10.420;2022-11-20T15:26:46;11.77;;;7.13;;
45296;SDS011;31040;51.622;10.420;2022-11-20T15:29:14;8.63;;;5.28;;
45296;SDS011;31040;51.622;10.420;2022-11-20T15:31:47;9.57;;;5.43;;
45296;SDS011;31040;51.622;10.420;2022-11-20T15:34:15;12.02;;;6.65;;
45296;SDS011;31040;51.622;10.420;2022-11-20T15:36:42;20.23;;;8.80;;
45296;SDS011;31040;51.622;10.420;2022-11-20T15:39:10;15.10;;;8.45;;
45296;SDS011;31040;51.622;10.420;2022-11-20T15:41:38;15.95;;;7.78;;
45296;SDS011;31040;51.622;10.420;2022-11-20T15:44:05;15.40;;;9.50;;
45296;SDS011;31040;51.622;10.420;2022-11-20T15:46:35;15.15;;;9.75;;
45296;SDS011;31040;51.622;10.420;2022-11-20T15:49:06;15.15;;;8.88;;
45296;SDS011;31040;51.622;10.420;2022-11-20T15:51:38;16.30;;;9.93;;
45296;SDS011;31040;51.622;10.420;2022-11-20T15:54:13;13.82;;;8.65;;
45296;SDS011;31040;51.622;10.420;2022-11-20T15:56:42;12.75;;;8.98;;
45296;SDS011;31040;51.622;10.420;2022-11-20T15:59:12;18.42;;;10.35;;
45296;SDS011;31040;51.622;10.420;2022-11-20T16:01:41;14.75;;;9.35;;
45296;SDS011;31040;51.622;10.420;2022-11-20T16:04:15;18.38;;;9.70;;
45296;SDS011;31040;51.622;10.420;2022-11-20T16:06:43;19.00;;;10.07;;
45296;SDS011;31040;51.622;10.420;2022-11-20T16:09:10;18.48;;;11.05;;
45296;SDS011;31040;51.622;10.420;2022-11-20T16:11:37;18.13;;;9.68;;
45296;SDS011;31040;51.622;10.420;2022-11-20T16:14:05;15.98;;;9.93;;
45296;SDS011;31040;51.622;10.420;2022-11-20T16:16:51;14.20;;;8.98;;
45296;SDS011;31040;51.622;10.420;2022-11-20T16:19:19;11.85;;;7.90;;
45296;SDS011;31040;51.622;10.420;2022-11-20T16:21:46;12.90;;;7.57;;
45296;SDS011;31040;51.622;10.420;2022-11-20T16:24:14;14.18;;;8.60;;
45296;SDS011;31040;51.622;10.420;2022-11-20T16:26:42;14.45;;;8.85;;
45296;SDS011;31040;51.622;10.420;2022-11-20T16:29:10;19.33;;;11.57;;
45296;SDS011;31040;51.622;10.420;2022-11-20T16:31:37;16.42;;;9.30;;
45296;SDS011;31040;51.622;10.420;2022-11-20T16:34:05;17.30;;;11.88;;
45296;SDS011;31040;51.622;10.420;2022-11-20T16:36:40;18.85;;;12.15;;
45296;SDS011;31040;51.622;10.420;2022-11-20T16:39:08;18.67;;;11.07;;
45296;SDS011;31040;51.622;10.420;2022-11-20T16:41:36;17.52;;;11.05;;
45296;SDS011;31040;51.622;10.420;2022-11-20T16:44:07;17.77;;;10.90;;